Time;durP1;ratioP1;P1;durP2;ratioP2;P2;SDS_P1;SDS_P2;PMS_P1;PMS_P2;Temp;Humidity;BMP_temperature;BMP_pressure;BME280_temperature;BME280_humidity;BME280_pressure;Samples;Min_cycle;Max_cycle;Signal;HPM_P1;HPM_P2
2023/07/18 00:00:29;;;;;;;12.90;3.63;;;;;;;;;;5023511;28;20056;-63
2023/07/18 00:02:56;;;;;;;13.35;4.53;;;;;;;;;;5023099;28;20080;-63
2023/07/18 00:05:22;;;;;;;11.32;4.00;;;;;;;;;;5022150;28;20032;-63
2023/07/18 00:07:48;;;;;;;10.77;3.60;;;;;;;;;;5022564;28;20025;-63
2023/07/18 00:10:15;;;;;;;10.27;3.85;;;;;;;;;;5024032;28;20025;-63
2023/07/18 00:12:41;;;;;;;10.98;3.58;;;;;;;;;;5023217;28;20715;-63
2023/07/18 00:15:09;;;;;;;12.60;3.63;;;;;;;;;;5022393;28;20120;-63
2023/07/18 00:17:35;;;;;;;14.75;4.13;;;;;;;;;;5022355;28;20041;-63
2023/07/18 00:20:04;;;;;;;11.18;3.80;;;;;;;;;;5023572;28;20116;-63
2023/07/18 00:22:31;;;;;;;9.50;3.80;;;;;;;;;;5022986;28;20044;-63
2023/07/18 00:25:00;;;;;;;13.35;4.00;;;;;;;;;;5021928;28;20029;-63
2023/07/18 00:27:26;;;;;;;9.40;3.90;;;;;;;;;;5023201;28;20068;-63
2023/07/18 00:29:52;;;;;;;15.85;4.50;;;;;;;;;;5022927;28;20614;-63
2023/07/18 00:32:18;;;;;;;10.65;3.83;;;;;;;;;;5023612;28;20767;-63
2023/07/18 00:34:44;;;;;;;12.70;3.80;;;;;;;;;;5023341;28;20510;-63
2023/07/18 00:37:11;;;;;;;11.73;4.28;;;;;;;;;;5022529;28;20902;-63
2023/07/18 00:39:37;;;;;;;12.60;4.20;;;;;;;;;;5023933;28;20030;-63
2023/07/18 00:42:03;;;;;;;10.63;3.80;;;;;;;;;;5023157;28;20033;-63
2023/07/18 00:44:29;;;;;;;11.18;3.83;;;;;;;;;;5023432;28;20025;-63
2023/07/18 00:46:56;;;;;;;13.88;4.07;;;;;;;;;;5022874;28;20033;-63
2023/07/18 00:49:22;;;;;;;12.32;4.03;;;;;;;;;;5021526;28;20033;-63
2023/07/18 00:51:48;;;;;;;10.15;3.60;;;;;;;;;;5022787;28;20060;-63
2023/07/18 00:54:15;;;;;;;9.60;3.90;;;;;;;;;;5022058;28;20047;-63
2023/07/18 00:56:41;;;;;;;12.40;4.03;;;;;;;;;;5023556;28;21354;-63
2023/07/18 00:59:07;;;;;;;12.10;4.05;;;;;;;;;;5022281;28;20436;-63
2023/07/18 01:01:34;;;;;;;9.70;3.70;;;;;;;;;;5028691;28;20036;-63
2023/07/18 01:04:00;;;;;;;10.35;4.03;;;;;;;;;;5022178;28;20741;-63
2023/07/18 01:06:26;;;;;;;12.15;4.25;;;;;;;;;;5023252;28;20112;-63
2023/07/18 01:08:55;;;;;;;10.80;4.35;;;;;;;;;;5023031;28;20033;-63
2023/07/18 01:11:21;;;;;;;9.98;4.55;;;;;;;;;;5022307;28;20025;-63
2023/07/18 01:13:47;;;;;;;13.10;4.72;;;;;;;;;;5022460;28;20043;-63
2023/07/18 01:16:14;;;;;;;12.20;3.97;;;;;;;;;;5022810;28;20128;-63
2023/07/18 01:18:40;;;;;;;10.38;3.58;;;;;;;;;;5023124;28;20035;-63
2023/07/18 01:21:08;;;;;;;10.65;3.97;;;;;;;;;;5025680;28;20041;-63
2023/07/18 01:23:34;;;;;;;12.98;4.05;;;;;;;;;;5026935;28;20037;-63
2023/07/18 01:26:00;;;;;;;13.70;4.70;;;;;;;;;;5026440;28;20076;-63
2023/07/18 01:28:26;;;;;;;13.27;4.30;;;;;;;;;;5025252;28;20037;-63
2023/07/18 01:30:52;;;;;;;10.63;4.03;;;;;;;;;;5026601;28;20040;-63
2023/07/18 01:33:19;;;;;;;9.75;3.67;;;;;;;;;;5026685;28;20048;-63
2023/07/18 01:35:46;;;;;;;11.32;4.00;;;;;;;;;;5026528;28;20028;-63
2023/07/18 01:38:12;;;;;;;13.07;4.20;;;;;;;;;;5026516;28;20160;-63
2023/07/18 01:40:38;;;;;;;11.50;4.32;;;;;;;;;;5026310;28;20031;-63
2023/07/18 01:43:04;;;;;;;11.40;3.92;;;;;;;;;;5026275;28;20059;-63
2023/07/18 01:45:31;;;;;;;13.68;3.75;;;;;;;;;;5031618;28;20036;-63
2023/07/18 01:47:57;;;;;;;10.40;3.90;;;;;;;;;;5025218;28;20060;-63
2023/07/18 01:50:23;;;;;;;14.43;4.95;;;;;;;;;;5025642;28;20026;-63
2023/07/18 01:52:49;;;;;;;14.85;4.82;;;;;;;;;;5025971;28;20029;-63
2023/07/18 01:55:16;;;;;;;9.70;3.97;;;;;;;;;;5025615;28;21951;-63
2023/07/18 01:57:43;;;;;;;12.02;4.75;;;;;;;;;;5025485;28;20045;-63
2023/07/18 02:00:11;;;;;;;10.18;4.38;;;;;;;;;;5025871;28;21825;-63
2023/07/18 02:02:37;;;;;;;12.70;5.00;;;;;;;;;;5025172;28;20076;-63
2023/07/18 02:05:04;;;;;;;16.00;5.07;;;;;;;;;;5026046;28;20871;-63
2023/07/18 02:07:30;;;;;;;11.90;4.22;;;;;;;;;;5024389;28;20065;-64
2023/07/18 02:09:56;;;;;;;10.88;4.60;;;;;;;;;;5026682;28;20394;-63
2023/07/18 02:12:22;;;;;;;10.82;4.45;;;;;;;;;;5025447;28;20599;-63
2023/07/18 02:14:48;;;;;;;10.98;4.55;;;;;;;;;;5026387;28;20028;-63
2023/07/18 02:17:15;;;;;;;13.48;4.78;;;;;;;;;;5025620;28;20044;-63
2023/07/18 02:19:41;;;;;;;14.23;4.05;;;;;;;;;;5025863;28;20152;-63
2023/07/18 02:22:07;;;;;;;9.38;3.88;;;;;;;;;;5025136;28;20048;-63
2023/07/18 02:24:33;;;;;;;13.00;4.68;;;;;;;;;;5024516;28;21113;-63
2023/07/18 02:26:59;;;;;;;10.10;4.90;;;;;;;;;;5025155;28;20126;-63
2023/07/18 02:29:25;;;;;;;15.45;5.35;;;;;;;;;;5025161;28;20033;-63
2023/07/18 02:31:51;;;;;;;12.10;4.65;;;;;;;;;;5024610;28;20041;-63
2023/07/18 02:34:17;;;;;;;13.52;3.97;;;;;;;;;;5024986;28;20040;-63
2023/07/18 02:36:44;;;;;;;11.02;4.45;;;;;;;;;;5025576;28;20037;-63
2023/07/18 02:39:10;;;;;;;11.63;3.88;;;;;;;;;;5025891;28;20033;-63
2023/07/18 02:41:37;;;;;;;11.73;4.10;;;;;;;;;;5024199;28;20083;-63
2023/07/18 02:44:03;;;;;;;13.13;4.60;;;;;;;;;;5025150;28;20046;-63
2023/07/18 02:46:29;;;;;;;12.38;4.63;;;;;;;;;;5024743;28;20029;-63
2023/07/18 02:48:55;;;;;;;14.98;5.65;;;;;;;;;;5023953;28;20028;-63
2023/07/18 02:51:21;;;;;;;15.13;5.10;;;;;;;;;;5023740;28;20033;-63
2023/07/18 02:53:51;;;;;;;12.00;4.18;;;;;;;;;;5023983;28;20163;-63
2023/07/18 02:56:17;;;;;;;13.90;4.30;;;;;;;;;;5024352;28;20040;-63
2023/07/18 02:58:43;;;;;;;12.95;4.40;;;;;;;;;;5037814;28;20045;-63
2023/07/18 03:01:09;;;;;;;10.25;4.05;;;;;;;;;;5022376;28;20029;-63
2023/07/18 03:03:38;;;;;;;10.43;4.07;;;;;;;;;;5023262;28;20038;-63
2023/07/18 03:06:04;;;;;;;12.20;3.72;;;;;;;;;;5024785;28;20036;-63
2023/07/18 03:08:32;;;;;;;12.82;3.97;;;;;;;;;;5024302;28;20527;-63
2023/07/18 03:10:58;;;;;;;12.75;4.10;;;;;;;;;;5023303;28;20044;-63
2023/07/18 03:13:26;;;;;;;14.15;4.28;;;;;;;;;;5024847;28;20041;-63
2023/07/18 03:15:52;;;;;;;9.02;4.00;;;;;;;;;;5023543;28;20037;-63
2023/07/18 03:18:18;;;;;;;13.23;4.65;;;;;;;;;;5024396;28;20047;-63
2023/07/18 03:20:44;;;;;;;9.90;4.00;;;;;;;;;;5024132;28;20520;-63
2023/07/18 03:23:10;;;;;;;15.25;4.90;;;;;;;;;;5023713;28;20035;-63
2023/07/18 03:25:36;;;;;;;11.13;4.00;;;;;;;;;;5024633;28;20041;-63
2023/07/18 03:28:02;;;;;;;10.30;3.97;;;;;;;;;;5024153;28;20058;-63
2023/07/18 03:30:28;;;;;;;11.93;4.65;;;;;;;;;;5024175;28;20030;-63
2023/07/18 03:32:55;;;;;;;9.05;4.28;;;;;;;;;;5024281;28;20041;-63
2023/07/18 03:35:21;;;;;;;13.05;4.57;;;;;;;;;;5024284;28;20114;-63
2023/07/18 03:37:47;;;;;;;12.02;4.53;;;;;;;;;;5024520;28;20041;-63
2023/07/18 03:40:16;;;;;;;9.63;4.75;;;;;;;;;;5022305;28;20041;-63
2023/07/18 03:42:43;;;;;;;12.75;4.28;;;;;;;;;;5023230;28;20071;-63
2023/07/18 03:45:10;;;;;;;15.60;5.10;;;;;;;;;;5022882;28;20064;-63
2023/07/18 03:47:37;;;;;;;11.15;4.20;;;;;;;;;;5024026;28;20468;-63
2023/07/18 03:50:03;;;;;;;16.00;5.13;;;;;;;;;;5022906;28;20021;-63
2023/07/18 03:52:29;;;;;;;11.68;4.05;;;;;;;;;;5024217;28;20128;-63
2023/07/18 03:54:55;;;;;;;10.55;4.07;;;;;;;;;;5022957;28;20512;-63
2023/07/18 03:57:22;;;;;;;10.88;4.30;;;;;;;;;;5023158;28;20391;-63
2023/07/18 03:59:48;;;;;;;11.48;4.43;;;;;;;;;;5029221;28;20765;-63
2023/07/18 04:02:14;;;;;;;10.68;3.63;;;;;;;;;;5021350;28;20115;-64
2023/07/18 04:04:43;;;;;;;15.13;5.13;;;;;;;;;;5021663;28;20132;-64
2023/07/18 04:07:09;;;;;;;9.48;4.38;;;;;;;;;;5023996;28;20025;-63
2023/07/18 04:09:35;;;;;;;12.63;4.57;;;;;;;;;;5023787;28;20365;-63
2023/07/18 04:12:01;;;;;;;15.38;4.90;;;;;;;;;;5023474;28;20043;-63
2023/07/18 04:14:27;;;;;;;10.77;3.95;;;;;;;;;;5024206;28;20743;-63
2023/07/18 04:16:53;;;;;;;10.60;4.35;;;;;;;;;;5023663;28;20485;-63
2023/07/18 04:19:19;;;;;;;11.30;5.10;;;;;;;;;;5024481;28;20036;-63
2023/07/18 04:21:45;;;;;;;10.43;4.68;;;;;;;;;;5024516;28;20049;-63
2023/07/18 04:24:12;;;;;;;12.60;4.90;;;;;;;;;;5023196;28;20037;-63
2023/07/18 04:26:38;;;;;;;13.73;4.88;;;;;;;;;;5024361;28;20040;-63
2023/07/18 04:29:07;;;;;;;13.77;4.55;;;;;;;;;;5024285;28;20034;-63
2023/07/18 04:31:33;;;;;;;13.63;4.80;;;;;;;;;;5022923;28;20044;-63
2023/07/18 04:34:00;;;;;;;13.30;5.63;;;;;;;;;;5023713;28;20037;-63
2023/07/18 04:36:26;;;;;;;17.85;5.30;;;;;;;;;;5023664;28;20033;-63
2023/07/18 04:38:52;;;;;;;13.18;5.07;;;;;;;;;;5022479;28;20030;-63
2023/07/18 04:41:18;;;;;;;10.70;4.40;;;;;;;;;;5024108;28;20025;-63
2023/07/18 04:43:44;;;;;;;16.02;5.07;;;;;;;;;;5023676;28;20097;-63
2023/07/18 04:46:10;;;;;;;9.95;3.88;;;;;;;;;;5023809;28;20103;-63
2023/07/18 04:48:36;;;;;;;13.32;4.18;;;;;;;;;;5022316;28;20029;-63
2023/07/18 04:51:03;;;;;;;15.00;4.95;;;;;;;;;;5023464;28;20640;-63
2023/07/18 04:53:30;;;;;;;15.32;5.05;;;;;;;;;;5023756;28;20037;-63
2023/07/18 04:55:56;;;;;;;16.50;4.95;;;;;;;;;;5027361;28;20063;-63
2023/07/18 04:58:23;;;;;;;15.35;4.68;;;;;;;;;;5027427;28;20033;-63
2023/07/18 05:00:50;;;;;;;12.23;4.40;;;;;;;;;;5027039;28;20059;-63
2023/07/18 05:03:16;;;;;;;11.25;4.85;;;;;;;;;;5026524;28;20852;-63
2023/07/18 05:05:42;;;;;;;12.38;4.07;;;;;;;;;;5026929;28;20645;-63
2023/07/18 05:08:08;;;;;;;18.23;4.28;;;;;;;;;;5027053;28;20033;-63
2023/07/18 05:10:34;;;;;;;12.07;3.72;;;;;;;;;;5025996;28;21020;-63
2023/07/18 05:13:00;;;;;;;14.23;4.50;;;;;;;;;;5027510;28;20039;-63
2023/07/18 05:15:26;;;;;;;18.27;4.88;;;;;;;;;;5027128;28;20095;-63
2023/07/18 05:17:52;;;;;;;14.75;4.38;;;;;;;;;;5027343;28;20041;-63
2023/07/18 05:20:19;;;;;;;16.67;5.55;;;;;;;;;;5026554;28;20025;-63
2023/07/18 05:22:46;;;;;;;15.77;4.80;;;;;;;;;;5026614;28;20045;-63
2023/07/18 05:25:13;;;;;;;14.05;4.55;;;;;;;;;;5025356;28;20025;-63
2023/07/18 05:27:39;;;;;;;25.58;5.63;;;;;;;;;;5025857;28;20021;-63
2023/07/18 05:30:06;;;;;;;12.98;4.43;;;;;;;;;;5026742;28;20075;-63
2023/07/18 05:32:32;;;;;;;14.27;4.63;;;;;;;;;;5026104;28;20495;-63
2023/07/18 05:34:59;;;;;;;13.35;4.85;;;;;;;;;;5026170;28;20064;-63
2023/07/18 05:37:26;;;;;;;14.18;4.40;;;;;;;;;;5026710;28;20185;-63
2023/07/18 05:39:52;;;;;;;18.92;4.60;;;;;;;;;;5024932;28;20041;-63
2023/07/18 05:42:18;;;;;;;16.40;5.07;;;;;;;;;;5025908;28;20044;-63
2023/07/18 05:44:44;;;;;;;11.63;4.38;;;;;;;;;;5026697;28;20044;-63
2023/07/18 05:47:10;;;;;;;18.17;5.30;;;;;;;;;;5026149;28;20029;-63
2023/07/18 05:49:36;;;;;;;15.32;4.88;;;;;;;;;;5025220;28;20029;-63
2023/07/18 05:52:03;;;;;;;16.45;5.53;;;;;;;;;;5025653;28;20061;-63
2023/07/18 05:54:30;;;;;;;15.05;5.45;;;;;;;;;;5023394;28;20343;-63
2023/07/18 05:56:58;;;;;;;19.50;5.25;;;;;;;;;;5024419;28;20041;-63
2023/07/18 05:59:24;;;;;;;12.38;4.75;;;;;;;;;;5024830;28;20656;-63
2023/07/18 06:01:50;;;;;;;12.90;5.38;;;;;;;;;;5024756;28;20089;-63
2023/07/18 06:04:16;;;;;;;16.80;4.63;;;;;;;;;;5025388;28;20056;-63
2023/07/18 06:06:45;;;;;;;12.43;4.18;;;;;;;;;;5024858;28;20089;-63
2023/07/18 06:09:12;;;;;;;15.98;5.20;;;;;;;;;;5025714;28;20133;-63
2023/07/18 06:11:38;;;;;;;15.80;5.20;;;;;;;;;;5024721;28;20033;-63
2023/07/18 06:14:05;;;;;;;16.55;5.53;;;;;;;;;;5024567;28;20082;-63
2023/07/18 06:16:31;;;;;;;16.17;5.30;;;;;;;;;;5025959;28;20141;-63
2023/07/18 06:18:57;;;;;;;17.90;4.15;;;;;;;;;;5025487;28;20033;-63
2023/07/18 06:21:27;;;;;;;10.90;4.70;;;;;;;;;;5024967;28;20067;-63
2023/07/18 06:23:53;;;;;;;12.38;4.80;;;;;;;;;;5025338;28;20120;-63
2023/07/18 06:26:20;;;;;;;11.38;5.13;;;;;;;;;;5025769;28;20025;-63
2023/07/18 06:28:46;;;;;;;13.82;6.05;;;;;;;;;;5025695;28;20361;-63
2023/07/18 06:31:14;;;;;;;17.02;5.60;;;;;;;;;;5024962;28;20374;-63
2023/07/18 06:33:40;;;;;;;13.25;4.78;;;;;;;;;;5025146;28;20080;-63
2023/07/18 06:36:06;;;;;;;10.07;4.57;;;;;;;;;;5024946;28;20029;-63
2023/07/18 06:38:33;;;;;;;14.10;4.72;;;;;;;;;;5024158;28;20040;-63
2023/07/18 06:40:59;;;;;;;11.85;4.72;;;;;;;;;;5025030;28;20502;-63
2023/07/18 06:43:27;;;;;;;14.90;5.68;;;;;;;;;;5025592;28;20033;-63
2023/07/18 06:45:54;;;;;;;16.52;4.93;;;;;;;;;;5024430;28;20575;-63
2023/07/18 06:48:20;;;;;;;15.27;5.00;;;;;;;;;;5022293;28;20037;-63
2023/07/18 06:50:53;;;;;;;9.80;4.30;;;;;;;;;;5025139;28;20045;-63
2023/07/18 06:53:20;;;;;;;10.30;4.47;;;;;;;;;;5023677;28;20135;-63
2023/07/18 06:55:49;;;;;;;13.18;4.97;;;;;;;;;;5024869;28;20449;-63
2023/07/18 06:58:16;;;;;;;14.75;5.03;;;;;;;;;;5024360;28;20029;-63
2023/07/18 07:00:42;;;;;;;15.50;5.40;;;;;;;;;;5024018;28;20041;-63
2023/07/18 07:03:08;;;;;;;17.52;5.80;;;;;;;;;;5021179;28;20128;-63
2023/07/18 07:05:38;;;;;;;12.73;4.72;;;;;;;;;;5022615;28;20084;-63
2023/07/18 07:08:08;;;;;;;14.80;5.28;;;;;;;;;;5023812;28;20499;-63
2023/07/18 07:10:35;;;;;;;18.05;5.40;;;;;;;;;;5029753;28;20045;-63
2023/07/18 07:13:01;;;;;;;17.05;6.25;;;;;;;;;;5024776;28;20147;-63
2023/07/18 07:15:27;;;;;;;10.88;4.43;;;;;;;;;;5024038;28;20040;-63
2023/07/18 07:17:53;;;;;;;12.95;4.68;;;;;;;;;;5025155;28;20171;-63
2023/07/18 07:20:19;;;;;;;14.50;4.82;;;;;;;;;;5024956;28;20389;-63
2023/07/18 07:22:47;;;;;;;12.82;5.10;;;;;;;;;;5021558;28;20056;-64
2023/07/18 07:25:14;;;;;;;15.95;5.47;;;;;;;;;;5023617;28;20033;-64
2023/07/18 07:27:44;;;;;;;14.93;5.88;;;;;;;;;;5024533;28;20123;-64
2023/07/18 07:30:15;;;;;;;14.10;5.65;;;;;;;;;;5023874;28;20030;-64
2023/07/18 07:32:41;;;;;;;17.02;6.03;;;;;;;;;;5022615;28;20033;-64
2023/07/18 07:35:08;;;;;;;15.95;5.60;;;;;;;;;;5023570;28;20033;-64
2023/07/18 07:37:34;;;;;;;15.55;6.18;;;;;;;;;;5021520;28;20043;-64
2023/07/18 07:40:00;;;;;;;17.23;5.68;;;;;;;;;;5024118;28;21026;-66
2023/07/18 07:42:26;;;;;;;15.15;5.72;;;;;;;;;;5021338;28;20052;-66
2023/07/18 07:44:52;;;;;;;14.65;5.18;;;;;;;;;;5023188;28;20048;-66
2023/07/18 07:47:18;;;;;;;13.75;5.03;;;;;;;;;;5021824;28;20033;-66
2023/07/18 07:49:44;;;;;;;17.15;5.35;;;;;;;;;;5008591;28;22267;-66
2023/07/18 07:52:11;;;;;;;14.77;4.28;;;;;;;;;;5009987;28;20056;-66
2023/07/18 07:54:37;;;;;;;15.90;5.10;;;;;;;;;;4993776;28;20116;-67
2023/07/18 07:57:03;;;;;;;12.40;4.35;;;;;;;;;;5010114;28;20036;-67
2023/07/18 07:59:29;;;;;;;11.25;3.65;;;;;;;;;;5010909;28;20049;-66
2023/07/18 08:01:55;;;;;;;14.52;4.65;;;;;;;;;;5011345;28;20028;-67
2023/07/18 08:04:21;;;;;;;11.70;4.00;;;;;;;;;;5015584;28;20034;-67
2023/07/18 08:06:48;;;;;;;12.05;3.63;;;;;;;;;;5015876;28;20082;-67
2023/07/18 08:09:15;;;;;;;8.07;3.13;;;;;;;;;;5015811;28;20037;-68
2023/07/18 08:11:41;;;;;;;11.15;3.55;;;;;;;;;;5015014;28;20116;-67
2023/07/18 08:14:07;;;;;;;10.55;3.13;;;;;;;;;;5014381;28;20103;-68
2023/07/18 08:16:33;;;;;;;15.65;3.30;;;;;;;;;;5014634;28;20029;-67
2023/07/18 08:18:59;;;;;;;11.18;3.55;;;;;;;;;;5013680;28;20063;-67
2023/07/18 08:21:26;;;;;;;9.07;3.00;;;;;;;;;;5013807;28;21720;-68
2023/07/18 08:23:52;;;;;;;12.07;3.30;;;;;;;;;;5014536;28;20045;-67
2023/07/18 08:26:18;;;;;;;8.75;2.88;;;;;;;;;;5014387;28;20036;-68
2023/07/18 08:28:44;;;;;;;10.00;2.53;;;;;;;;;;5014026;28;20677;-68
2023/07/18 08:31:11;;;;;;;9.50;2.70;;;;;;;;;;5013774;28;20041;-67
2023/07/18 08:33:37;;;;;;;7.43;2.20;;;;;;;;;;5013955;28;20037;-67
2023/07/18 08:36:03;;;;;;;10.55;2.75;;;;;;;;;;5015550;28;20095;-67
2023/07/18 08:38:29;;;;;;;6.30;1.88;;;;;;;;;;5013778;28;20677;-67
2023/07/18 08:40:58;;;;;;;10.10;2.50;;;;;;;;;;5012717;28;21077;-67
2023/07/18 08:43:24;;;;;;;10.02;2.00;;;;;;;;;;5013755;28;20033;-67
2023/07/18 08:45:52;;;;;;;7.10;1.83;;;;;;;;;;5014364;28;20037;-67
2023/07/18 08:48:18;;;;;;;8.38;2.22;;;;;;;;;;5014738;28;20104;-67
2023/07/18 08:50:44;;;;;;;8.95;2.40;;;;;;;;;;5011519;28;20385;-68
2023/07/18 08:53:10;;;;;;;8.98;2.17;;;;;;;;;;5017224;28;20807;-68
2023/07/18 08:55:36;;;;;;;10.48;2.97;;;;;;;;;;5020231;28;20065;-68
2023/07/18 08:58:03;;;;;;;10.13;3.10;;;;;;;;;;5020500;28;20029;-67
2023/07/18 09:00:29;;;;;;;10.73;2.60;;;;;;;;;;5019841;28;20029;-68
2023/07/18 09:02:56;;;;;;;9.95;2.22;;;;;;;;;;5019503;28;20029;-67
2023/07/18 09:05:29;;;;;;;7.18;1.85;;;;;;;;;;5020388;28;20034;-67
2023/07/18 09:07:56;;;;;;;5.63;1.85;;;;;;;;;;5020327;28;20034;-67
2023/07/18 09:10:22;;;;;;;4.93;1.77;;;;;;;;;;5021282;28;20025;-68
2023/07/18 09:12:48;;;;;;;6.05;1.40;;;;;;;;;;5021770;28;20968;-67
2023/07/18 09:15:19;;;;;;;7.38;1.45;;;;;;;;;;5022295;28;20033;-68
2023/07/18 09:17:48;;;;;;;6.80;1.55;;;;;;;;;;5022403;28;20029;-68
2023/07/18 09:20:17;;;;;;;7.38;1.95;;;;;;;;;;5021628;28;20036;-68
2023/07/18 09:22:43;;;;;;;6.20;1.30;;;;;;;;;;5021314;28;20052;-68
2023/07/18 09:25:09;;;;;;;6.13;1.45;;;;;;;;;;5022106;28;20481;-68
2023/07/18 09:27:36;;;;;;;8.68;2.17;;;;;;;;;;5020456;28;20443;-68
2023/07/18 09:30:02;;;;;;;8.30;2.00;;;;;;;;;;5015252;28;20025;-68
2023/07/18 09:32:28;;;;;;;9.25;2.15;;;;;;;;;;5012109;28;20935;-68
2023/07/18 09:34:59;;;;;;;7.75;1.95;;;;;;;;;;5012307;28;20037;-68
2023/07/18 09:37:25;;;;;;;5.65;1.70;;;;;;;;;;5014596;28;21793;-68
2023/07/18 09:39:51;;;;;;;6.32;1.92;;;;;;;;;;5012119;28;20079;-68
2023/07/18 09:42:18;;;;;;;6.90;1.60;;;;;;;;;;5015673;28;20485;-62
2023/07/18 09:44:48;;;;;;;7.32;1.70;;;;;;;;;;5014518;28;20037;-63
2023/07/18 09:47:15;;;;;;;6.72;2.00;;;;;;;;;;5016441;28;20034;-62
2023/07/18 09:49:43;;;;;;;8.25;1.85;;;;;;;;;;5015999;28;20025;-68
2023/07/18 09:52:09;;;;;;;7.97;1.92;;;;;;;;;;5018462;28;20033;-68
2023/07/18 09:54:36;;;;;;;6.97;1.50;;;;;;;;;;5018540;28;20033;-68
2023/07/18 09:57:09;;;;;;;7.10;1.92;;;;;;;;;;5018650;28;20036;-62
2023/07/18 09:59:39;;;;;;;6.85;1.67;;;;;;;;;;5019151;28;20036;-62
2023/07/18 10:02:06;;;;;;;7.03;1.40;;;;;;;;;;5017899;28;20040;-62
2023/07/18 10:04:33;;;;;;;5.82;1.63;;;;;;;;;;5018238;28;20033;-62
2023/07/18 10:07:00;;;;;;;7.32;1.90;;;;;;;;;;5018407;28;20044;-68
2023/07/18 10:09:27;;;;;;;18.20;3.00;;;;;;;;;;5017108;28;21676;-68
2023/07/18 10:12:00;;;;;;;9.75;2.13;;;;;;;;;;5016909;28;20025;-67
2023/07/18 10:14:44;;;;;;;8.57;2.28;;;;;;;;;;5016692;28;20120;-67
2023/07/18 10:17:24;;;;;;;9.20;2.00;;;;;;;;;;5016799;28;20037;-68
2023/07/18 10:19:50;;;;;;;8.23;1.88;;;;;;;;;;5017305;28;20032;-67
2023/07/18 10:22:26;;;;;;;8.30;2.17;;;;;;;;;;5018574;28;20056;-68
2023/07/18 10:24:52;;;;;;;5.57;1.67;;;;;;;;;;5018451;28;20029;-67
2023/07/18 10:27:24;;;;;;;7.85;1.48;;;;;;;;;;5018191;28;20041;-64
2023/07/18 10:30:06;;;;;;;7.68;2.30;;;;;;;;;;5016736;28;20029;-63
2023/07/18 10:32:33;;;;;;;6.20;1.52;;;;;;;;;;5016807;28;20099;-63
2023/07/18 10:35:00;;;;;;;7.57;1.73;;;;;;;;;;5016781;28;20025;-64
2023/07/18 10:37:27;;;;;;;9.00;2.10;;;;;;;;;;5018070;28;20052;-64
2023/07/18 10:39:57;;;;;;;9.10;2.17;;;;;;;;;;5017115;28;20490;-63
2023/07/18 10:42:30;;;;;;;6.63;1.58;;;;;;;;;;5016759;28;20069;-63
2023/07/18 10:45:00;;;;;;;7.38;1.80;;;;;;;;;;5016503;28;20076;-64
2023/07/18 10:47:28;;;;;;;6.93;2.10;;;;;;;;;;5016705;28;20025;-64
2023/07/18 10:49:54;;;;;;;9.68;2.60;;;;;;;;;;5016945;28;20064;-64
2023/07/18 10:52:21;;;;;;;10.70;2.00;;;;;;;;;;5017219;28;20051;-63
2023/07/18 10:54:50;;;;;;;10.02;2.13;;;;;;;;;;5017562;28;20040;-64
2023/07/18 10:57:16;;;;;;;5.93;2.15;;;;;;;;;;5016580;28;20041;-64
2023/07/18 10:59:51;;;;;;;9.25;2.28;;;;;;;;;;5017065;28;20097;-64
2023/07/18 11:02:19;;;;;;;10.68;2.35;;;;;;;;;;5015113;28;20034;-64
2023/07/18 11:04:45;;;;;;;6.57;1.65;;;;;;;;;;5016973;28;20091;-64
2023/07/18 11:07:11;;;;;;;5.78;1.73;;;;;;;;;;5016529;28;20036;-64
2023/07/18 11:09:37;;;;;;;7.38;2.03;;;;;;;;;;5017055;28;20029;-63
2023/07/18 11:12:04;;;;;;;5.53;1.90;;;;;;;;;;5016327;28;20029;-65
2023/07/18 11:14:39;;;;;;;7.20;1.52;;;;;;;;;;5017204;28;20033;-65
2023/07/18 11:17:13;;;;;;;6.88;1.85;;;;;;;;;;5017034;28;20029;-65
2023/07/18 11:19:39;;;;;;;7.38;1.70;;;;;;;;;;5017022;28;20036;-65
2023/07/18 11:22:10;;;;;;;7.63;1.65;;;;;;;;;;5016762;28;20061;-65
2023/07/18 11:24:36;;;;;;;4.90;1.67;;;;;;;;;;5016632;28;20029;-65
2023/07/18 11:27:22;;;;;;;6.85;1.33;;;;;;;;;;5016412;28;20033;-65
2023/07/18 11:29:58;;;;;;;7.03;1.73;;;;;;;;;;5016240;28;20025;-66
2023/07/18 11:32:31;;;;;;;5.20;1.52;;;;;;;;;;5016724;28;20035;-66
2023/07/18 11:34:58;;;;;;;8.18;1.60;;;;;;;;;;5016213;28;20083;-66
2023/07/18 11:37:24;;;;;;;7.30;1.55;;;;;;;;;;5016297;28;20030;-66
2023/07/18 11:39:50;;;;;;;5.32;1.50;;;;;;;;;;5015894;28;20110;-65
2023/07/18 11:42:17;;;;;;;7.55;1.52;;;;;;;;;;5016642;28;20044;-65
2023/07/18 11:44:43;;;;;;;5.85;1.73;;;;;;;;;;5017258;28;20079;-65
2023/07/18 11:47:12;;;;;;;9.40;2.25;;;;;;;;;;5016828;28;20053;-66
2023/07/18 11:49:39;;;;;;;4.38;1.38;;;;;;;;;;5016357;28;20110;-66
2023/07/18 11:52:08;;;;;;;6.45;1.80;;;;;;;;;;5016732;28;20034;-65
2023/07/18 11:54:38;;;;;;;8.48;1.98;;;;;;;;;;5015689;28;20033;-66
2023/07/18 11:57:05;;;;;;;5.35;1.40;;;;;;;;;;5016113;28;20045;-65
2023/07/18 11:59:31;;;;;;;7.43;1.92;;;;;;;;;;5016045;28;20033;-65
2023/07/18 12:01:57;;;;;;;10.98;1.70;;;;;;;;;;5016582;28;20033;-65
2023/07/18 12:04:23;;;;;;;5.57;1.92;;;;;;;;;;5015856;28;20029;-65
2023/07/18 12:06:50;;;;;;;6.68;1.50;;;;;;;;;;5015508;28;20029;-65
2023/07/18 12:09:16;;;;;;;7.65;1.60;;;;;;;;;;5015197;28;20068;-66
2023/07/18 12:11:43;;;;;;;3.80;0.90;;;;;;;;;;5015174;28;20045;-65
2023/07/18 12:14:09;;;;;;;6.57;1.92;;;;;;;;;;5014471;28;20041;-65
2023/07/18 12:16:38;;;;;;;6.35;1.85;;;;;;;;;;5014915;28;20116;-65
2023/07/18 12:19:04;;;;;;;5.55;1.75;;;;;;;;;;5015542;28;20025;-65
2023/07/18 12:21:30;;;;;;;7.68;1.55;;;;;;;;;;5013944;28;20057;-65
2023/07/18 12:23:57;;;;;;;4.85;1.20;;;;;;;;;;5015934;28;20095;-65
2023/07/18 12:26:24;;;;;;;7.43;1.73;;;;;;;;;;5014728;28;20037;-65
2023/07/18 12:28:51;;;;;;;6.47;1.50;;;;;;;;;;5015613;28;20033;-65
2023/07/18 12:31:17;;;;;;;6.93;1.40;;;;;;;;;;5015506;28;20029;-65
2023/07/18 12:33:44;;;;;;;6.45;2.00;;;;;;;;;;5016113;28;20032;-65
2023/07/18 12:36:12;;;;;;;6.00;1.90;;;;;;;;;;5016253;28;21023;-65
2023/07/18 12:38:38;;;;;;;7.70;2.00;;;;;;;;;;5015294;28;20044;-65
2023/07/18 12:41:05;;;;;;;5.75;1.90;;;;;;;;;;5014368;28;20515;-65
2023/07/18 12:43:31;;;;;;;5.53;1.50;;;;;;;;;;5013533;28;20056;-65
2023/07/18 12:45:57;;;;;;;5.32;1.58;;;;;;;;;;5015360;28;20935;-65
2023/07/18 12:48:23;;;;;;;7.93;1.60;;;;;;;;;;5014780;28;21872;-65
2023/07/18 12:50:50;;;;;;;5.25;2.10;;;;;;;;;;5016130;28;20040;-65
2023/07/18 12:53:16;;;;;;;4.65;1.30;;;;;;;;;;5014171;28;20116;-65
2023/07/18 12:55:42;;;;;;;6.05;1.65;;;;;;;;;;5015432;28;20144;-65
2023/07/18 12:58:08;;;;;;;5.22;1.38;;;;;;;;;;5015376;28;20089;-65
2023/07/18 13:00:34;;;;;;;5.03;1.42;;;;;;;;;;5013636;28;20060;-65
2023/07/18 13:03:00;;;;;;;7.32;1.67;;;;;;;;;;5016474;28;20046;-65
2023/07/18 13:05:26;;;;;;;3.95;1.60;;;;;;;;;;5014824;28;20025;-65
2023/07/18 13:07:52;;;;;;;5.07;1.48;;;;;;;;;;5014163;28;20113;-65
2023/07/18 13:10:18;;;;;;;9.30;1.30;;;;;;;;;;5014497;28;21525;-64
2023/07/18 13:12:45;;;;;;;6.18;2.20;;;;;;;;;;5011755;28;20029;-65
2023/07/18 13:15:11;;;;;;;3.15;1.30;;;;;;;;;;5014935;28;20073;-65
2023/07/18 13:17:37;;;;;;;5.70;1.75;;;;;;;;;;5019383;28;20060;-65
2023/07/18 13:20:04;;;;;;;5.97;1.17;;;;;;;;;;5018632;28;20075;-65
2023/07/18 13:22:30;;;;;;;3.67;1.40;;;;;;;;;;5018041;28;20866;-65
2023/07/18 13:24:56;;;;;;;3.85;1.20;;;;;;;;;;5018385;28;20037;-65
2023/07/18 13:27:22;;;;;;;2.83;1.23;;;;;;;;;;5019427;28;20036;-65
2023/07/18 13:29:48;;;;;;;4.75;1.42;;;;;;;;;;5019284;28;20036;-65
2023/07/18 13:32:14;;;;;;;4.90;1.27;;;;;;;;;;5018987;28;20037;-65
2023/07/18 13:34:40;;;;;;;5.22;1.83;;;;;;;;;;5019634;28;20059;-65
2023/07/18 13:37:07;;;;;;;3.38;1.15;;;;;;;;;;5018445;28;20025;-65
2023/07/18 13:39:33;;;;;;;3.75;1.30;;;;;;;;;;5019618;28;20075;-65
2023/07/18 13:41:59;;;;;;;5.30;1.67;;;;;;;;;;5018845;28;20065;-65
2023/07/18 13:44:25;;;;;;;7.80;1.67;;;;;;;;;;5019030;28;20029;-65
2023/07/18 13:46:51;;;;;;;4.82;1.73;;;;;;;;;;5018248;28;20025;-65
2023/07/18 13:49:17;;;;;;;3.15;1.20;;;;;;;;;;5017530;28;21197;-65
2023/07/18 13:51:43;;;;;;;5.03;1.50;;;;;;;;;;5017808;28;20110;-65
2023/07/18 13:54:09;;;;;;;6.82;1.83;;;;;;;;;;5018334;28;20147;-65
2023/07/18 13:56:36;;;;;;;4.70;1.20;;;;;;;;;;5018006;28;20115;-65
2023/07/18 13:59:02;;;;;;;3.97;1.17;;;;;;;;;;5018393;28;21071;-65
2023/07/18 14:01:28;;;;;;;4.75;1.33;;;;;;;;;;5018944;28;20633;-65
2023/07/18 14:03:54;;;;;;;4.88;1.45;;;;;;;;;;5017760;28;20216;-65
2023/07/18 14:06:20;;;;;;;4.20;1.40;;;;;;;;;;5018985;28;20130;-65
2023/07/18 14:08:47;;;;;;;4.57;1.02;;;;;;;;;;5016391;28;20041;-65
2023/07/18 14:11:13;;;;;;;7.57;1.55;;;;;;;;;;5016401;28;20037;-65
2023/07/18 14:13:41;;;;;;;6.05;1.40;;;;;;;;;;5016868;28;21812;-65
2023/07/18 14:16:08;;;;;;;9.13;1.58;;;;;;;;;;5015939;28;20094;-65
2023/07/18 14:18:34;;;;;;;6.38;1.85;;;;;;;;;;5016965;28;20038;-65
2023/07/18 14:21:00;;;;;;;4.65;1.00;;;;;;;;;;5016601;28;20080;-65
2023/07/18 14:23:27;;;;;;;5.68;1.48;;;;;;;;;;5017594;28;21942;-65
2023/07/18 14:25:54;;;;;;;6.72;1.60;;;;;;;;;;5015808;28;20060;-65
2023/07/18 14:28:21;;;;;;;5.53;1.45;;;;;;;;;;5016257;28;20101;-65
2023/07/18 14:30:47;;;;;;;5.40;1.35;;;;;;;;;;5017560;28;20047;-65
2023/07/18 14:33:13;;;;;;;3.17;0.82;;;;;;;;;;5017908;28;20033;-65